createdAt,value
2023-02-27T09:47:45.427Z,500.00
2023-02-27T09:48:45.409Z,500.00
2023-02-27T09:49:45.503Z,500.00
2023-02-27T09:50:45.393Z,500.00
2023-02-27T09:51:45.387Z,400.00
2023-02-27T09:52:45.370Z,400.00
2023-02-27T09:53:45.360Z,400.00
2023-02-27T09:54:45.503Z,400.00
2023-02-27T09:55:45.547Z,400.00
2023-02-27T09:56:45.347Z,400.00
2023-02-27T09:57:45.336Z,400.00
2023-02-27T09:58:45.314Z,400.00
2023-02-27T09:59:45.370Z,400.00
2023-02-27T10:00:45.523Z,400.00
2023-02-27T10:01:45.506Z,400.00
2023-02-27T10:02:46.309Z,400.00
2023-02-27T10:03:45.267Z,400.00
2023-02-27T10:04:45.255Z,400.00
2023-02-27T10:05:45.258Z,400.00
2023-02-27T10:06:45.548Z,400.00
2023-02-27T10:07:45.239Z,400.00
2023-02-27T10:08:45.221Z,400.00
2023-02-27T10:09:45.763Z,400.00
2023-02-27T10:10:45.249Z,400.00
2023-02-27T10:11:45.196Z,400.00
2023-02-27T10:12:45.185Z,400.00
2023-02-27T10:13:45.194Z,400.00
2023-02-27T10:14:45.271Z,400.00
2023-02-27T10:15:45.171Z,400.00
2023-02-27T10:16:45.209Z,400.00
2023-02-27T10:17:45.154Z,400.00
2023-02-27T10:18:45.165Z,400.00
2023-02-27T10:19:45.129Z,400.00
2023-02-27T10:20:45.805Z,400.00
2023-02-27T10:21:45.110Z,400.00
2023-02-27T10:22:45.526Z,400.00
2023-02-27T10:23:45.113Z,400.00
2023-02-27T10:24:45.107Z,400.00
2023-02-27T10:25:45.101Z,400.00
2023-02-27T10:26:45.686Z,400.00
2023-02-27T10:27:45.524Z,400.00
2023-02-27T10:28:45.577Z,400.00
2023-02-27T10:29:45.166Z,400.00
2023-02-27T10:30:45.160Z,400.00
2023-02-27T10:31:45.141Z,400.00
2023-02-27T10:32:45.107Z,400.00
2023-02-27T10:33:45.113Z,400.00
2023-02-27T10:34:45.617Z,400.00
2023-02-27T10:35:45.167Z,400.00
2023-02-27T10:36:45.064Z,400.00
2023-02-27T10:37:45.534Z,400.00
2023-02-27T10:38:45.125Z,400.00
2023-02-27T10:39:45.528Z,400.00
2023-02-27T10:40:45.144Z,400.00
2023-02-27T10:41:45.111Z,400.00
2023-02-27T10:42:45.549Z,400.00
2023-02-27T10:43:45.099Z,400.00
2023-02-27T10:44:45.529Z,400.00
2023-02-27T10:45:45.119Z,400.00
2023-02-27T10:46:45.653Z,400.00
2023-02-27T10:47:45.097Z,419.00
2023-02-27T10:48:45.080Z,461.00
2023-02-27T10:49:45.082Z,505.00
2023-02-27T10:50:45.081Z,505.00
2023-02-27T10:51:45.597Z,499.00
2023-02-27T10:52:45.048Z,506.00
2023-02-27T10:53:45.525Z,499.00
2023-02-27T10:54:45.078Z,511.00
2023-02-27T10:55:45.068Z,543.00
2023-02-27T10:56:45.060Z,522.00
2023-02-27T10:57:45.524Z,516.00
2023-02-27T10:58:45.537Z,527.00
2023-02-27T10:59:45.104Z,500.00
2023-02-27T11:00:45.107Z,526.00
2023-02-27T11:01:45.217Z,526.00
2023-02-27T11:02:45.091Z,508.00
2023-02-27T11:03:45.545Z,496.00
2023-02-27T11:04:45.140Z,530.00
2023-02-27T11:05:45.052Z,526.00
2023-02-27T11:06:45.109Z,458.00
2023-02-27T11:07:45.544Z,547.00
2023-02-27T11:08:45.032Z,578.00
2023-02-27T11:09:45.022Z,539.00
2023-02-27T11:10:45.021Z,557.00
2023-02-27T11:11:44.998Z,570.00
2023-02-27T11:13:45.058Z,568.00
2023-02-27T11:15:44.994Z,546.00
2023-02-27T11:16:44.955Z,549.00
2023-02-27T11:17:44.950Z,574.00
2023-02-27T11:18:45.076Z,560.00
2023-02-27T11:19:44.944Z,539.00
2023-02-27T11:20:45.036Z,533.00
2023-02-27T11:21:44.915Z,538.00
2023-02-27T11:22:44.937Z,547.00
2023-02-27T11:23:44.895Z,558.00
2023-02-27T11:24:44.893Z,539.00
2023-02-27T11:25:45.044Z,502.00
2023-02-27T11:27:44.864Z,568.00
2023-02-27T11:28:44.853Z,565.00
2023-02-27T11:29:45.035Z,600.00
2023-02-27T11:30:44.899Z,614.00
2023-02-27T11:31:44.898Z,620.00
2023-02-27T11:32:45.038Z,600.00
2023-02-27T11:33:44.812Z,597.00
2023-02-27T11:34:45.086Z,594.00
2023-02-27T11:35:44.825Z,569.00
2023-02-27T11:36:44.791Z,570.00
2023-02-27T11:37:44.778Z,559.00
2023-02-27T11:38:44.811Z,588.00
2023-02-27T11:39:45.066Z,562.00
2023-02-27T11:40:44.750Z,580.00
2023-02-27T11:41:44.761Z,571.00
2023-02-27T11:42:44.760Z,567.00
2023-02-27T11:43:45.043Z,568.00
2023-02-27T11:44:50.711Z,562.00
2023-02-27T11:46:20.352Z,562.00
2023-02-27T11:46:48.501Z,563.00
2023-02-27T11:47:45.099Z,563.00
2023-02-27T11:48:44.679Z,565.00
2023-02-27T11:49:44.670Z,562.00
2023-02-27T11:50:44.669Z,547.00
2023-02-27T11:51:44.665Z,585.00
2023-02-27T11:52:44.648Z,563.00
2023-02-27T11:53:45.058Z,521.00
2023-02-27T11:54:44.652Z,534.00
2023-02-27T11:55:45.068Z,537.00
2023-02-27T11:56:44.622Z,556.00
2023-02-27T11:57:44.613Z,546.00
2023-02-27T11:58:45.050Z,540.00
2023-02-27T11:59:44.598Z,575.00
2023-02-27T12:00:44.590Z,537.00
2023-02-27T12:01:45.079Z,537.00
2023-02-27T12:02:44.656Z,523.00
2023-02-27T12:03:45.590Z,540.00
2023-02-27T12:04:44.548Z,523.00
2023-02-27T12:05:44.589Z,545.00
2023-02-27T12:06:44.556Z,556.00
2023-02-27T12:08:44.515Z,563.00
2023-02-27T12:09:44.505Z,538.00
2023-02-27T12:10:44.733Z,555.00
2023-02-27T12:11:44.554Z,544.00
2023-02-27T12:12:44.484Z,531.00
2023-02-27T12:13:44.483Z,539.00
2023-02-27T12:14:44.542Z,515.00
2023-02-27T12:15:44.467Z,478.00
2023-02-27T12:16:44.631Z,527.00
2023-02-27T12:17:44.451Z,526.00
2023-02-27T12:18:44.437Z,582.00
2023-02-27T12:19:44.429Z,595.00
2023-02-27T12:20:44.538Z,585.00
2023-02-27T12:21:44.566Z,625.00
2023-02-27T12:22:44.428Z,604.00
2023-02-27T12:23:44.384Z,623.00
2023-02-27T12:24:44.381Z,615.00
2023-02-27T12:25:44.365Z,603.00
2023-02-27T12:26:45.087Z,601.00
2023-02-27T12:27:44.366Z,599.00
2023-02-27T12:28:44.361Z,618.00
2023-02-27T12:29:44.341Z,624.00
2023-02-27T12:30:44.323Z,600.00
2023-02-27T12:31:44.790Z,607.00
2023-02-27T12:32:44.335Z,617.00
2023-02-27T12:33:44.589Z,627.00
2023-02-27T12:34:44.305Z,604.00
2023-02-27T12:35:44.317Z,589.00
2023-02-27T12:36:44.722Z,636.00
2023-02-27T12:37:45.055Z,613.00
2023-02-27T12:38:51.647Z,615.00
2023-02-27T12:39:44.724Z,616.00
2023-02-27T12:40:44.831Z,615.00
2023-02-27T12:41:44.837Z,616.00
2023-02-27T12:42:44.237Z,603.00
2023-02-27T12:43:44.208Z,614.00
2023-02-27T12:44:44.197Z,606.00
2023-02-27T12:45:44.312Z,597.00
2023-02-27T12:46:44.609Z,589.00
2023-02-27T12:47:44.183Z,595.00
2023-02-27T12:48:44.186Z,594.00
2023-02-27T12:49:44.212Z,627.00
2023-02-27T12:50:44.341Z,594.00
2023-02-27T12:51:44.150Z,599.00
2023-02-27T12:52:45.556Z,611.00
2023-02-27T12:53:44.128Z,643.00
2023-02-27T12:54:46.329Z,662.00
2023-02-27T12:55:44.098Z,661.00
2023-02-27T12:56:44.097Z,656.00
2023-02-27T12:57:45.057Z,642.00
2023-02-27T12:58:44.526Z,652.00
2023-02-27T12:59:44.509Z,737.00
2023-02-27T13:00:44.681Z,656.00
2023-02-27T13:01:44.059Z,665.00
2023-02-27T13:02:44.601Z,646.00
2023-02-27T13:03:44.273Z,657.00
2023-02-27T13:04:44.550Z,659.00
2023-02-27T13:05:44.622Z,648.00
2023-02-27T13:06:44.395Z,573.00
2023-02-27T13:07:44.730Z,621.00
2023-02-27T13:08:44.448Z,580.00
2023-02-27T13:09:44.173Z,600.00
2023-02-27T13:10:44.132Z,628.00
2023-02-27T13:11:44.003Z,656.00
2023-02-27T13:12:44.661Z,604.00
2023-02-27T13:13:44.115Z,647.00
2023-02-27T13:14:44.007Z,662.00
2023-02-27T13:15:43.960Z,640.00
2023-02-27T13:16:44.052Z,629.00
2023-02-27T13:17:43.962Z,630.00
2023-02-27T13:18:44.106Z,642.00
2023-02-27T13:19:43.930Z,604.00
2023-02-27T13:20:44.105Z,632.00
2023-02-27T13:21:44.203Z,631.00
2023-02-27T13:22:43.905Z,655.00
2023-02-27T13:23:44.095Z,655.00
2023-02-27T13:24:43.986Z,621.00
2023-02-27T13:25:43.971Z,625.00
2023-02-27T13:26:44.033Z,607.00
2023-02-27T13:27:43.894Z,588.00
2023-02-27T13:28:44.203Z,603.00
2023-02-27T13:29:43.955Z,626.00
2023-02-27T13:30:45.029Z,603.00
2023-02-27T13:31:44.045Z,623.00
2023-02-27T13:32:44.733Z,653.00
2023-02-27T13:33:45.601Z,626.00
2023-02-27T13:34:44.337Z,655.00
2023-02-27T13:35:44.312Z,655.00
2023-02-27T13:36:43.821Z,655.00
2023-02-27T13:37:44.022Z,636.00
2023-02-27T13:38:44.694Z,626.00
2023-02-27T13:39:44.148Z,643.00
2023-02-27T13:40:44.505Z,618.00
2023-02-27T13:41:43.739Z,630.00
2023-02-27T13:42:43.715Z,577.00
2023-02-27T13:43:52.236Z,581.00
2023-02-27T13:44:44.115Z,582.00
2023-02-27T13:45:44.070Z,590.00
2023-02-27T13:46:44.106Z,605.00
2023-02-27T13:47:43.735Z,621.00
2023-02-27T13:48:44.613Z,651.00
2023-02-27T13:49:45.129Z,664.00
2023-02-27T13:50:44.407Z,661.00
2023-02-27T13:51:44.004Z,663.00
2023-02-27T13:52:44.085Z,650.00
2023-02-27T13:53:44.182Z,712.00
2023-02-27T13:54:44.529Z,653.00
2023-02-27T13:55:44.096Z,634.00
2023-02-27T13:56:44.167Z,656.00
2023-02-27T13:57:43.757Z,638.00
2023-02-27T13:58:44.156Z,584.00
2023-02-27T13:59:44.602Z,643.00
2023-02-27T14:00:44.131Z,621.00
2023-02-27T14:01:44.181Z,632.00
2023-02-27T14:02:58.125Z,660.00
2023-02-27T14:03:43.914Z,590.00
2023-02-27T14:04:44.305Z,599.00
2023-02-27T14:05:44.111Z,640.00
2023-02-27T14:06:44.215Z,678.00
2023-02-27T14:07:45.095Z,633.00
2023-02-27T14:08:43.588Z,679.00
2023-02-27T14:09:44.781Z,661.00
2023-02-27T14:10:43.619Z,647.00
2023-02-27T14:11:44.316Z,654.00
2023-02-27T14:12:46.148Z,656.00
2023-02-27T14:13:44.193Z,618.00
2023-02-27T14:14:44.185Z,628.00
2023-02-27T14:15:44.258Z,624.00
2023-02-27T14:16:44.019Z,627.00
2023-02-27T14:17:44.236Z,624.00
2023-02-27T14:18:43.881Z,610.00
2023-02-27T14:19:44.156Z,619.00
2023-02-27T14:20:43.741Z,607.00
2023-02-27T14:21:43.483Z,612.00
2023-02-27T14:22:43.915Z,650.00
2023-02-27T14:23:43.670Z,692.00
2023-02-27T14:25:01.142Z,695.00
2023-02-27T14:25:44.140Z,696.00
2023-02-27T14:26:44.019Z,636.00
2023-02-27T14:27:43.842Z,465.00
2023-02-27T14:28:43.998Z,444.00
2023-02-27T14:29:43.914Z,521.00
2023-02-27T14:30:44.008Z,575.00
2023-02-27T14:31:43.884Z,586.00
2023-02-27T14:32:44.045Z,563.00
2023-02-27T14:33:44.086Z,591.00
2023-02-27T14:34:43.851Z,579.00
2023-02-27T14:35:44.150Z,581.00
2023-02-27T14:36:44.161Z,637.00
2023-02-27T14:37:43.795Z,650.00
2023-02-27T14:38:43.970Z,657.00
2023-02-27T14:39:43.769Z,644.00
2023-02-27T14:40:44.637Z,684.00
2023-02-27T14:41:43.441Z,5628.00
2023-02-27T14:42:43.813Z,5302.00
2023-02-27T14:43:43.776Z,6025.00
2023-02-27T14:44:43.840Z,5988.00
2023-02-27T14:45:44.144Z,5640.00
2023-02-27T14:46:43.820Z,5943.00
2023-02-27T14:47:43.767Z,5765.00
2023-02-27T14:48:43.346Z,5395.00
2023-02-27T14:49:43.902Z,5132.00
2023-02-27T14:50:44.374Z,4766.00
2023-02-27T14:51:44.186Z,4354.00
2023-02-27T14:52:43.669Z,4201.00
2023-02-27T14:53:43.587Z,3958.00
2023-02-27T14:54:45.256Z,3876.00
2023-02-27T14:55:43.766Z,3638.00
2023-02-27T14:56:44.551Z,3488.00
2023-02-27T14:57:43.759Z,3281.00
2023-02-27T14:58:45.702Z,3107.00
2023-02-27T14:59:44.371Z,2998.00
2023-02-27T15:01:43.933Z,2745.00
2023-02-27T15:02:43.484Z,2547.00
2023-02-27T15:03:43.959Z,2479.00
2023-02-27T15:04:43.742Z,2357.00
2023-02-27T15:05:43.835Z,2274.00
2023-02-27T15:06:43.929Z,2067.00
2023-02-27T15:07:43.589Z,2204.00
2023-02-27T15:08:43.618Z,2114.00
2023-02-27T15:09:43.660Z,2006.00
2023-02-27T15:10:43.626Z,1864.00
2023-02-27T15:11:51.277Z,1938.00
2023-02-27T15:12:43.584Z,1895.00
2023-02-27T15:13:43.788Z,1804.00
2023-02-27T15:14:43.654Z,1717.00
2023-02-27T15:15:43.538Z,1706.00
2023-02-27T15:16:43.703Z,1698.00
2023-02-27T15:17:43.528Z,1652.00
2023-02-27T15:18:43.480Z,1583.00
2023-02-27T15:19:43.494Z,1612.00
2023-02-27T15:20:43.533Z,1548.00
2023-02-27T15:21:43.570Z,1629.00
2023-02-27T15:22:43.433Z,1583.00
2023-02-27T15:23:43.522Z,1641.00
2023-02-27T15:24:50.024Z,1462.00
2023-02-27T15:25:42.943Z,1466.00
2023-02-27T15:26:43.547Z,1344.00
2023-02-27T15:27:43.616Z,1391.00
2023-02-27T15:28:44.090Z,1339.00
2023-02-27T15:29:43.555Z,1387.00
2023-02-27T15:30:43.723Z,1364.00
2023-02-27T15:31:43.566Z,1226.00
2023-02-27T15:32:43.521Z,1205.00
2023-02-27T15:33:43.971Z,1058.00
2023-02-27T15:34:44.068Z,1063.00
2023-02-27T15:35:43.532Z,1020.00
2023-02-27T15:36:43.600Z,952.00
2023-02-27T15:37:43.925Z,871.00
2023-02-27T15:38:43.605Z,901.00
2023-02-27T15:39:44.869Z,898.00
2023-02-27T15:40:43.387Z,903.00
2023-02-27T15:41:43.166Z,912.00
2023-02-27T15:42:44.132Z,909.00
2023-02-27T15:43:44.416Z,904.00
2023-02-27T15:44:43.304Z,853.00
2023-02-27T15:45:43.626Z,867.00
2023-02-27T15:46:43.315Z,859.00
2023-02-27T15:47:44.108Z,898.00
2023-02-27T15:48:43.351Z,876.00
2023-02-27T15:49:43.561Z,785.00
2023-02-27T15:50:43.633Z,783.00
2023-02-27T15:51:43.699Z,709.00
2023-02-27T15:52:43.865Z,712.00
2023-02-27T15:53:43.341Z,738.00
2023-02-27T15:54:43.322Z,654.00
2023-02-27T15:55:43.124Z,663.00
2023-02-27T15:56:43.352Z,650.00
2023-02-27T15:57:52.936Z,655.00
2023-02-27T15:58:43.550Z,656.00
2023-02-27T15:59:43.634Z,656.00
2023-02-27T16:00:43.646Z,660.00
2023-02-27T16:01:43.615Z,631.00
2023-02-27T16:02:44.232Z,665.00
2023-02-27T16:03:43.427Z,671.00
2023-02-27T16:04:43.364Z,649.00
2023-02-27T16:05:43.600Z,633.00
2023-02-27T16:06:43.532Z,625.00
2023-02-27T16:07:43.688Z,614.00
2023-02-27T16:08:43.240Z,624.00
2023-02-27T16:09:43.481Z,760.00
2023-02-27T16:10:43.422Z,666.00
2023-02-27T16:11:43.220Z,683.00
2023-02-27T16:12:43.413Z,678.00
2023-02-27T16:13:43.390Z,742.00
2023-02-27T16:14:43.180Z,703.00
2023-02-27T16:15:41.772Z,740.00
2023-02-27T16:16:42.784Z,755.00
2023-02-27T16:17:42.741Z,776.00
2023-02-27T16:18:42.728Z,805.00
2023-02-27T16:19:42.717Z,804.00
2023-02-27T16:20:42.724Z,830.00
2023-02-27T16:21:42.702Z,834.00
2023-02-27T16:22:42.698Z,834.00
2023-02-27T16:23:42.704Z,838.00
2023-02-27T16:24:42.692Z,869.00
2023-02-27T16:25:42.664Z,871.00
2023-02-27T16:26:42.680Z,877.00
2023-02-27T16:27:42.658Z,892.00
2023-02-27T16:28:42.673Z,882.00
2023-02-27T16:29:42.632Z,874.00
2023-02-27T16:30:42.621Z,915.00
2023-02-27T16:31:42.639Z,921.00
2023-02-27T16:32:42.712Z,918.00
2023-02-27T16:33:42.691Z,942.00
2023-02-27T16:34:46.419Z,936.00
2023-02-27T16:35:42.634Z,929.00
2023-02-27T16:36:42.582Z,940.00
2023-02-27T16:37:42.563Z,944.00
2023-02-27T16:38:42.562Z,960.00
2023-02-27T16:39:42.545Z,964.00
2023-02-27T16:40:42.631Z,980.00
2023-02-27T16:41:42.531Z,993.00
2023-02-27T16:42:42.562Z,1009.00
2023-02-27T16:43:42.513Z,992.00
2023-02-27T16:44:42.503Z,1008.00
2023-02-27T16:45:42.527Z,1022.00
2023-02-27T16:46:42.486Z,1005.00
2023-02-27T16:47:42.472Z,1011.00
2023-02-27T16:48:42.484Z,1024.00
2023-02-27T16:49:42.461Z,1033.00
2023-02-27T16:50:42.454Z,1023.00
2023-02-27T16:51:42.441Z,1032.00
2023-02-27T16:52:42.430Z,1047.00
2023-02-27T16:53:42.461Z,1045.00
2023-02-27T16:54:42.421Z,1045.00
2023-02-27T16:55:42.404Z,1053.00
2023-02-27T16:56:42.754Z,1063.00
2023-02-27T16:57:42.393Z,1056.00
2023-02-27T16:58:42.409Z,1074.00
2023-02-27T16:59:42.413Z,1064.00
2023-02-27T17:00:42.370Z,1074.00
2023-02-27T17:01:42.357Z,1067.00
2023-02-27T17:02:42.349Z,1079.00
2023-02-27T17:03:42.365Z,1072.00
2023-02-27T17:04:42.348Z,1080.00
2023-02-27T17:05:42.331Z,1093.00
2023-02-27T17:06:42.318Z,1081.00
2023-02-27T17:07:42.319Z,1092.00
2023-02-27T17:08:42.351Z,1095.00
2023-02-27T17:09:42.294Z,1097.00
2023-02-27T17:10:42.284Z,1086.00
2023-02-27T17:11:42.279Z,1095.00
2023-02-27T17:12:43.816Z,1107.00
2023-02-27T17:13:42.435Z,1109.00
2023-02-27T17:14:42.456Z,1100.00
2023-02-27T17:15:42.421Z,1112.00
2023-02-27T17:16:42.473Z,1117.00
2023-02-27T17:17:42.403Z,1104.00
2023-02-27T17:18:42.441Z,1114.00
2023-02-27T17:19:42.400Z,1109.00
2023-02-27T17:20:42.387Z,1109.00
2023-02-27T17:21:42.370Z,1124.00
2023-02-27T17:22:42.367Z,1122.00
2023-02-27T17:23:42.360Z,1126.00
2023-02-27T17:24:42.342Z,1127.00
2023-02-27T17:25:42.342Z,1129.00
2023-02-27T17:26:42.334Z,1136.00
2023-02-27T17:27:42.315Z,1126.00
2023-02-27T17:28:42.307Z,1138.00
2023-02-27T17:29:42.305Z,1137.00
2023-02-27T17:30:42.345Z,1131.00
2023-02-27T17:31:42.284Z,1131.00
2023-02-27T17:32:42.276Z,1131.00
2023-02-27T17:33:42.300Z,1138.00
2023-02-27T17:34:42.263Z,1129.00
2023-02-27T17:35:42.304Z,1144.00
2023-02-27T17:36:42.248Z,1137.00
2023-02-27T17:37:42.341Z,1138.00
2023-02-27T17:38:42.222Z,1143.00
2023-02-27T17:39:42.214Z,1140.00
2023-02-27T17:40:42.209Z,1142.00
2023-02-27T17:41:42.199Z,1147.00
2023-02-27T17:42:42.192Z,1133.00
2023-02-27T17:43:42.186Z,1147.00
2023-02-27T17:44:44.858Z,1140.00
2023-02-27T17:45:42.302Z,1163.00
2023-02-27T17:46:42.175Z,1160.00
2023-02-27T17:47:42.148Z,1149.00
2023-02-27T17:48:42.136Z,1140.00
2023-02-27T17:49:42.129Z,1141.00
2023-02-27T17:50:44.631Z,1154.00
2023-02-27T17:51:42.109Z,1155.00
2023-02-27T17:52:42.103Z,1156.00
2023-02-27T17:53:42.089Z,1155.00
2023-02-27T17:54:42.087Z,1154.00
2023-02-27T17:55:42.069Z,1166.00
2023-02-27T17:56:42.084Z,1156.00
2023-02-27T17:57:42.054Z,1153.00
2023-02-27T17:58:42.052Z,1164.00
2023-02-27T17:59:42.039Z,1155.00
2023-02-27T18:00:42.025Z,1164.00
2023-02-27T18:01:42.092Z,1162.00
2023-02-27T18:02:42.053Z,1162.00
2023-02-27T18:03:42.007Z,1159.00
2023-02-27T18:04:41.992Z,1156.00
2023-02-27T18:05:41.989Z,1162.00
2023-02-27T18:06:41.973Z,1167.00
2023-02-27T18:07:41.967Z,1175.00
2023-02-27T18:08:41.976Z,1169.00
2023-02-27T18:09:41.952Z,1157.00
2023-02-27T18:10:41.936Z,1166.00
2023-02-27T18:11:41.931Z,1159.00
2023-02-27T18:12:41.948Z,1161.00
2023-02-27T18:13:41.912Z,1154.00
2023-02-27T18:14:41.905Z,1166.00
2023-02-27T18:15:41.947Z,1164.00
2023-02-27T18:16:41.891Z,1173.00
2023-02-27T18:17:41.874Z,1162.00
2023-02-27T18:18:41.895Z,1163.00
2023-02-27T18:19:41.858Z,1176.00
2023-02-27T18:20:41.850Z,1158.00
2023-02-27T18:21:41.894Z,1165.00
2023-02-27T18:22:41.837Z,1171.00
2023-02-27T18:23:41.896Z,1165.00
2023-02-27T18:24:41.825Z,1171.00
2023-02-27T18:25:41.806Z,1178.00
2023-02-27T18:26:41.802Z,1159.00
2023-02-27T18:27:41.785Z,1162.00
2023-02-27T18:28:41.781Z,1161.00
2023-02-27T18:29:41.777Z,1170.00
2023-02-27T18:30:41.780Z,1160.00
2023-02-27T18:31:41.752Z,1168.00
2023-02-27T18:32:41.748Z,1167.00
2023-02-27T18:33:41.743Z,1169.00
2023-02-27T18:34:41.753Z,1168.00
2023-02-27T18:35:41.742Z,1164.00
2023-02-27T18:36:41.707Z,1159.00
2023-02-27T18:37:41.705Z,1166.00
2023-02-27T18:38:41.695Z,1163.00
2023-02-27T18:39:41.691Z,1177.00
2023-02-27T18:40:41.684Z,1161.00
2023-02-27T18:41:41.671Z,1165.00
2023-02-27T18:42:41.653Z,1156.00
2023-02-27T18:43:41.655Z,1172.00
2023-02-27T18:44:41.653Z,1163.00
2023-02-27T18:45:41.676Z,1167.00
2023-02-27T18:46:41.720Z,1164.00
2023-02-27T18:47:41.611Z,1175.00
2023-02-27T18:48:41.621Z,1171.00
2023-02-27T18:49:41.607Z,1154.00
2023-02-27T18:50:41.623Z,1165.00
2023-02-27T18:51:41.599Z,1162.00
2023-02-27T18:52:41.576Z,1162.00
2023-02-27T18:53:41.564Z,1170.00
2023-02-27T18:54:41.554Z,1162.00
2023-02-27T18:55:41.543Z,1164.00
2023-02-27T18:56:41.536Z,1160.00
2023-02-27T18:57:41.534Z,1168.00
2023-02-27T18:58:41.529Z,1160.00
2023-02-27T18:59:41.535Z,1159.00
2023-02-27T19:00:41.506Z,1165.00
2023-02-27T19:01:41.493Z,1162.00
2023-02-27T19:02:41.922Z,1148.00
2023-02-27T19:03:41.549Z,1154.00
2023-02-27T19:04:41.467Z,1154.00
2023-02-27T19:05:41.454Z,1161.00
2023-02-27T19:06:41.476Z,1158.00
2023-02-27T19:07:41.449Z,1158.00
2023-02-27T19:08:41.432Z,1159.00
2023-02-27T19:09:41.425Z,1157.00
2023-02-27T19:10:41.420Z,1163.00
2023-02-27T19:11:41.405Z,1166.00
2023-02-27T19:12:41.400Z,1148.00
2023-02-27T19:13:41.402Z,1149.00
2023-02-27T19:14:41.384Z,1151.00
2023-02-27T19:15:41.396Z,1154.00
2023-02-27T19:16:41.487Z,1155.00
2023-02-27T19:17:41.355Z,1152.00
2023-02-27T19:18:41.346Z,1162.00
2023-02-27T19:19:41.334Z,1148.00
2023-02-27T19:20:41.363Z,1155.00
2023-02-27T19:21:41.348Z,1144.00
2023-02-27T19:22:41.346Z,1158.00
2023-02-27T19:23:41.305Z,1154.00
2023-02-27T19:24:41.290Z,1158.00
2023-02-27T19:25:41.311Z,1152.00
2023-02-27T19:26:41.281Z,1152.00
2023-02-27T19:27:41.264Z,1151.00
2023-02-27T19:28:41.276Z,1147.00
2023-02-27T19:29:41.247Z,1145.00
2023-02-27T19:30:41.281Z,1156.00
2023-02-27T19:31:41.295Z,1160.00
2023-02-27T19:32:41.222Z,1141.00
2023-02-27T19:33:41.210Z,1152.00
2023-02-27T19:34:41.214Z,1155.00
2023-02-27T19:35:43.483Z,1157.00
2023-02-27T19:36:41.187Z,1158.00
2023-02-27T19:37:41.183Z,1159.00
2023-02-27T19:38:41.204Z,1158.00
2023-02-27T19:39:41.165Z,1160.00
2023-02-27T19:40:41.148Z,1160.00
2023-02-27T19:41:41.149Z,1173.00
2023-02-27T19:42:41.132Z,1157.00
2023-02-27T19:43:41.150Z,1163.00
2023-02-27T19:44:41.123Z,1147.00
2023-02-27T19:45:41.114Z,1152.00
2023-02-27T19:46:41.431Z,1148.00
2023-02-27T19:47:41.090Z,1147.00
2023-02-27T19:48:41.116Z,1155.00
2023-02-27T19:49:41.083Z,1150.00
2023-02-27T19:50:41.069Z,1156.00
2023-02-27T19:51:41.059Z,1151.00
2023-02-27T19:52:41.080Z,1147.00
2023-02-27T19:53:41.055Z,1149.00
2023-02-27T19:54:41.056Z,1153.00
2023-02-27T19:55:41.031Z,1159.00
2023-02-27T19:56:41.011Z,1154.00
2023-02-27T19:57:41.006Z,1155.00
2023-02-27T19:58:41.000Z,1153.00
2023-02-27T19:59:40.991Z,1144.00
2023-02-27T20:00:41.004Z,1159.00
2023-02-27T20:01:40.993Z,1153.00
2023-02-27T20:02:40.964Z,1154.00
2023-02-27T20:03:43.492Z,1144.00
2023-02-27T20:04:40.952Z,1145.00
2023-02-27T20:05:40.936Z,1147.00
2023-02-27T20:06:40.932Z,1150.00
2023-02-27T20:07:40.917Z,1158.00
2023-02-27T20:08:40.933Z,1164.00
2023-02-27T20:09:40.902Z,1159.00
2023-02-27T20:10:41.868Z,1162.00
2023-02-27T20:11:40.884Z,1163.00
2023-02-27T20:12:40.875Z,1156.00
2023-02-27T20:13:40.867Z,1168.00
2023-02-27T20:14:40.853Z,1164.00
2023-02-27T20:15:40.852Z,1165.00
2023-02-27T20:16:40.920Z,1147.00
2023-02-27T20:17:40.825Z,1145.00
2023-02-27T20:18:41.797Z,1152.00
2023-02-27T20:19:40.807Z,1159.00
2023-02-27T20:20:40.828Z,1160.00
2023-02-27T20:21:40.797Z,1156.00
2023-02-27T20:22:40.787Z,1149.00
2023-02-27T20:23:40.775Z,1155.00
2023-02-27T20:24:40.764Z,1160.00
2023-02-27T20:25:40.752Z,1151.00
2023-02-27T20:26:40.788Z,1157.00
2023-02-27T20:27:40.739Z,1159.00
2023-02-27T20:28:40.747Z,1153.00
2023-02-27T20:29:40.745Z,1162.00
2023-02-27T20:30:40.713Z,1160.00
2023-02-27T20:31:40.750Z,1145.00
2023-02-27T20:32:40.777Z,1162.00
2023-02-27T20:33:40.707Z,1157.00
2023-02-27T20:34:40.683Z,1156.00
2023-02-27T20:35:40.698Z,1155.00
2023-02-27T20:36:40.668Z,1152.00
2023-02-27T20:37:40.655Z,1150.00
2023-02-27T20:38:40.646Z,1154.00
2023-02-27T20:39:40.628Z,1141.00
2023-02-27T20:40:40.618Z,1139.00
2023-02-27T20:41:40.623Z,1148.00
2023-02-27T20:42:40.629Z,1148.00
2023-02-27T20:43:40.601Z,1151.00
2023-02-27T20:44:40.592Z,1149.00
2023-02-27T20:45:40.696Z,1145.00
2023-02-27T20:46:40.573Z,1138.00
2023-02-27T20:47:40.562Z,1141.00
2023-02-27T20:48:40.551Z,1137.00
2023-02-27T20:49:40.550Z,1136.00
2023-02-27T20:50:40.557Z,1144.00
2023-02-27T20:51:40.534Z,1129.00
2023-02-27T20:52:40.521Z,1145.00
2023-02-27T20:53:40.533Z,1138.00
2023-02-27T20:54:40.512Z,1139.00
2023-02-27T20:55:40.499Z,1130.00
2023-02-27T20:56:40.540Z,1138.00
2023-02-27T20:57:40.527Z,1137.00
2023-02-27T20:58:40.492Z,1149.00
2023-02-27T20:59:40.457Z,1137.00
2023-02-27T21:00:40.472Z,1143.00
2023-02-27T21:01:40.520Z,1136.00
2023-02-27T21:02:40.434Z,1131.00
2023-02-27T21:03:40.535Z,1136.00
2023-02-27T21:04:40.505Z,1135.00
2023-02-27T21:05:40.406Z,1139.00
2023-02-27T21:06:40.399Z,1137.00
2023-02-27T21:07:40.392Z,1140.00
2023-02-27T21:08:40.376Z,1132.00
2023-02-27T21:09:40.371Z,1136.00
2023-02-27T21:10:40.367Z,1137.00
2023-02-27T21:11:40.351Z,1142.00
2023-02-27T21:12:40.352Z,1126.00
2023-02-27T21:13:40.334Z,1128.00
2023-02-27T21:14:40.349Z,1151.00
2023-02-27T21:15:40.370Z,1133.00
2023-02-27T21:16:40.353Z,1131.00
2023-02-27T21:17:40.300Z,1135.00
2023-02-27T21:18:40.297Z,1135.00
2023-02-27T21:19:40.297Z,1137.00
2023-02-27T21:20:40.271Z,1138.00
2023-02-27T21:21:40.260Z,1140.00
2023-02-27T21:22:40.259Z,1140.00
2023-02-27T21:23:40.244Z,1134.00
2023-02-27T21:24:40.239Z,1141.00
2023-02-27T21:25:40.225Z,1131.00
2023-02-27T21:26:40.228Z,1128.00
2023-02-27T21:27:40.236Z,1137.00
2023-02-27T21:28:40.208Z,1131.00
2023-02-27T21:29:40.229Z,1128.00
2023-02-27T21:30:40.208Z,1129.00
2023-02-27T21:31:40.247Z,1134.00
2023-02-27T21:32:40.166Z,1121.00
2023-02-27T21:33:40.163Z,1139.00
2023-02-27T21:34:40.147Z,1121.00
2023-02-27T21:35:40.151Z,1126.00
2023-02-27T21:36:40.124Z,1144.00
2023-02-27T21:37:40.120Z,1132.00
2023-02-27T21:38:40.123Z,1126.00
2023-02-27T21:39:40.102Z,1127.00
2023-02-27T21:40:40.097Z,1131.00
2023-02-27T21:41:40.083Z,1128.00
2023-02-27T21:42:40.084Z,1127.00
2023-02-27T21:43:40.064Z,1136.00
2023-02-27T21:44:40.057Z,1130.00
2023-02-27T21:45:40.048Z,1114.00
2023-02-27T21:46:40.062Z,1132.00
2023-02-27T21:47:40.038Z,1115.00
2023-02-27T21:48:40.052Z,1127.00
2023-02-27T21:49:40.018Z,1131.00
2023-02-27T21:50:40.004Z,1136.00
2023-02-27T21:51:41.207Z,1131.00
2023-02-27T21:52:39.983Z,1137.00
2023-02-27T21:53:39.983Z,1115.00
2023-02-27T21:54:39.967Z,1120.00
2023-02-27T21:55:39.960Z,1128.00
2023-02-27T21:56:39.952Z,1133.00
2023-02-27T21:57:39.938Z,1120.00
2023-02-27T21:58:39.927Z,1131.00
2023-02-27T21:59:39.918Z,1123.00
2023-02-27T22:00:39.918Z,1123.00
2023-02-27T22:01:39.920Z,1122.00
2023-02-27T22:02:40.019Z,1129.00
2023-02-27T22:03:39.883Z,1137.00
2023-02-27T22:04:39.874Z,1120.00
2023-02-27T22:05:39.870Z,1121.00
2023-02-27T22:06:39.857Z,1127.00
2023-02-27T22:07:39.850Z,1118.00
2023-02-27T22:08:39.846Z,1122.00